createdAt,value
2023-08-04T00:01:40.965Z,5.50
2023-08-04T00:12:00.452Z,5.40
2023-08-04T00:22:28.382Z,5.90
2023-08-04T00:33:59.724Z,4.80
2023-08-04T00:36:57.203Z,5.00
2023-08-04T00:40:45.809Z,5.30
2023-08-04T00:43:21.923Z,5.50
2023-08-04T00:45:54.549Z,5.60
2023-08-04T00:48:31.761Z,5.10
2023-08-04T00:51:04.305Z,5.30
2023-08-04T00:53:36.689Z,5.70
2023-08-04T00:56:09.284Z,5.00
2023-08-04T00:58:41.886Z,5.80
2023-08-04T01:01:14.580Z,5.60
2023-08-04T01:03:53.116Z,5.80
2023-08-04T01:06:31.323Z,5.70
2023-08-04T01:09:10.030Z,5.30
2023-08-04T01:17:57.572Z,5.90
2023-08-04T01:20:31.450Z,5.80
2023-08-04T01:23:04.152Z,6.00
2023-08-04T01:25:37.860Z,5.80
2023-08-04T01:28:14.013Z,5.30
2023-08-04T01:30:50.133Z,6.30
2023-08-04T01:33:22.567Z,5.50
2023-08-04T01:42:11.232Z,5.20
2023-08-04T01:44:43.811Z,5.20
2023-08-04T01:47:16.288Z,5.20
2023-08-04T01:49:48.672Z,5.40
2023-08-04T01:52:21.238Z,5.40
2023-08-04T01:54:53.830Z,4.90
2023-08-04T01:57:26.283Z,5.30
2023-08-04T01:59:58.737Z,4.90
2023-08-04T02:02:31.933Z,5.50
2023-08-04T02:05:04.390Z,4.80
2023-08-04T02:07:37.411Z,5.00
2023-08-04T02:10:11.804Z,4.40
2023-08-04T02:12:44.476Z,4.90
2023-08-04T02:15:17.570Z,5.30
2023-08-04T02:17:51.829Z,5.20
2023-08-04T02:20:24.408Z,5.20
2023-08-04T02:22:57.038Z,5.50
2023-08-04T02:25:29.388Z,5.00
2023-08-04T02:28:01.787Z,5.30
2023-08-04T02:30:34.162Z,5.00
2023-08-04T02:33:06.762Z,5.40
2023-08-04T02:35:39.215Z,5.10
2023-08-04T02:38:12.643Z,5.50
2023-08-04T02:40:45.078Z,6.00
2023-08-04T02:43:17.574Z,5.70
2023-08-04T02:45:53.210Z,5.00
2023-08-04T02:48:25.870Z,5.20
2023-08-04T02:51:05.372Z,5.60
2023-08-04T02:53:38.854Z,5.30
2023-08-04T02:56:14.967Z,6.00
2023-08-04T02:58:48.716Z,6.30
2023-08-04T03:01:21.235Z,5.90
2023-08-04T03:03:53.770Z,5.60
2023-08-04T03:06:26.392Z,6.00
2023-08-04T03:08:58.952Z,5.80
2023-08-04T03:11:31.514Z,5.50
2023-08-04T03:14:04.072Z,6.20
2023-08-04T03:16:36.564Z,5.30
2023-08-04T03:19:08.965Z,6.10
2023-08-04T03:21:41.645Z,5.90
2023-08-04T03:24:13.999Z,5.70
2023-08-04T03:26:46.670Z,6.00
2023-08-04T03:29:19.058Z,6.00
2023-08-04T03:31:51.755Z,7.20
2023-08-04T03:34:24.358Z,6.50
2023-08-04T03:36:56.692Z,5.80
2023-08-04T03:39:29.482Z,5.80
2023-08-04T03:42:01.830Z,5.80
2023-08-04T03:44:34.414Z,5.70
2023-08-04T03:47:07.854Z,5.40
2023-08-04T03:49:42.029Z,5.80
2023-08-04T03:52:14.952Z,5.50
2023-08-04T03:54:47.556Z,6.10
2023-08-04T03:57:20.035Z,6.10
2023-08-04T03:59:53.486Z,6.10
2023-08-04T04:02:25.958Z,6.10
2023-08-04T04:04:58.491Z,6.00
2023-08-04T04:07:30.940Z,6.10
2023-08-04T04:10:03.443Z,6.00
2023-08-04T04:12:37.607Z,5.90
2023-08-04T04:15:12.265Z,5.90
2023-08-04T04:17:44.676Z,6.30
2023-08-04T04:30:22.974Z,5.80
2023-08-04T04:32:55.526Z,6.40
2023-08-04T04:35:28.098Z,5.50
2023-08-04T04:38:00.505Z,5.90
2023-08-04T04:40:32.986Z,5.70
2023-08-04T04:43:05.382Z,5.60
2023-08-04T04:45:38.076Z,6.20
2023-08-04T04:48:10.638Z,5.30
2023-08-04T04:50:43.846Z,6.20
2023-08-04T04:53:16.490Z,5.70
2023-08-04T04:55:49.012Z,5.80
2023-08-04T04:58:21.190Z,5.60
2023-08-04T05:00:53.475Z,5.60
2023-08-04T05:03:25.866Z,6.20
2023-08-04T05:05:58.508Z,6.20
2023-08-04T05:08:31.234Z,6.10
2023-08-04T05:11:03.598Z,6.20
2023-08-04T05:13:36.005Z,6.40
2023-08-04T05:16:08.783Z,6.20
2023-08-04T05:18:41.157Z,5.80
2023-08-04T05:21:13.513Z,6.70
2023-08-04T05:23:46.107Z,5.60
2023-08-04T05:26:18.620Z,6.40
2023-08-04T05:28:51.178Z,6.20
2023-08-04T05:37:05.554Z,5.40
2023-08-04T05:39:37.878Z,5.90
2023-08-04T05:42:11.613Z,6.40
2023-08-04T05:44:44.713Z,5.90
2023-08-04T05:47:19.429Z,5.70
2023-08-04T05:50:03.563Z,6.30
2023-08-04T05:52:40.463Z,6.50
2023-08-04T05:55:17.037Z,6.50
2023-08-04T05:57:50.601Z,6.80
2023-08-04T06:00:31.259Z,6.10
2023-08-04T06:03:05.799Z,5.70
2023-08-04T06:05:43.385Z,6.20
2023-08-04T06:08:16.797Z,6.30
2023-08-04T06:10:49.985Z,5.80
2023-08-04T06:13:24.062Z,6.00
2023-08-04T06:15:58.571Z,5.80
2023-08-04T06:18:32.241Z,6.20
2023-08-04T06:21:14.540Z,6.30
2023-08-04T06:23:47.828Z,6.10
2023-08-04T06:26:22.243Z,5.80
2023-08-04T06:28:56.428Z,6.40
2023-08-04T06:31:28.800Z,5.00
2023-08-04T06:34:01.817Z,6.10
2023-08-04T06:36:34.882Z,5.50
2023-08-04T06:39:07.551Z,6.00
2023-08-04T06:41:42.200Z,6.20
2023-08-04T06:44:16.495Z,8.10
2023-08-04T06:46:48.853Z,7.00
2023-08-04T06:49:21.116Z,5.50
2023-08-04T06:51:53.608Z,5.80
2023-08-04T06:54:26.065Z,6.10
2023-08-04T06:56:58.283Z,5.60
2023-08-04T06:59:31.235Z,5.90
2023-08-04T07:02:03.607Z,6.80
2023-08-04T07:04:36.037Z,7.10
2023-08-04T07:07:09.210Z,6.00
2023-08-04T07:09:41.610Z,5.60
2023-08-04T07:12:14.175Z,5.90
2023-08-04T07:14:46.399Z,7.10
2023-08-04T07:17:18.623Z,6.20
2023-08-04T07:19:52.013Z,6.10
2023-08-04T07:22:24.309Z,5.40
2023-08-04T07:24:56.692Z,7.00
2023-08-04T07:27:29.010Z,6.40
2023-08-04T07:30:01.589Z,5.50
2023-08-04T07:32:34.009Z,6.20
2023-08-04T07:35:07.189Z,5.60
2023-08-04T07:37:39.624Z,5.30
2023-08-04T07:40:14.854Z,4.90
2023-08-04T07:42:47.195Z,5.40
2023-08-04T07:45:20.246Z,5.20
2023-08-04T07:47:52.764Z,5.70
2023-08-04T07:50:25.202Z,4.90
2023-08-04T07:52:57.489Z,5.20
2023-08-04T07:55:29.787Z,5.50
2023-08-04T07:58:02.201Z,4.90
2023-08-04T08:00:34.702Z,5.20
2023-08-04T08:03:07.280Z,5.60
2023-08-04T08:05:39.802Z,5.70
2023-08-04T08:08:12.109Z,5.40
2023-08-04T08:10:44.706Z,4.70
2023-08-04T08:13:17.061Z,5.10
2023-08-04T08:15:49.539Z,5.40
2023-08-04T08:18:22.603Z,5.30
2023-08-04T08:20:54.906Z,5.50
2023-08-04T08:23:27.177Z,5.60
2023-08-04T08:25:59.507Z,4.70
2023-08-04T08:28:31.933Z,5.00
2023-08-04T08:31:04.222Z,5.00
2023-08-04T08:33:36.829Z,5.70
2023-08-04T08:36:09.180Z,5.50
2023-08-04T08:38:41.455Z,5.50
2023-08-04T08:41:14.918Z,5.40
2023-08-04T08:43:48.116Z,5.70
2023-08-04T08:46:21.160Z,5.70
2023-08-04T08:48:54.141Z,5.80
2023-08-04T08:51:28.045Z,6.00
2023-08-04T08:54:00.563Z,5.30
2023-08-04T08:56:32.872Z,5.60
2023-08-04T08:59:05.547Z,5.50
2023-08-04T09:01:37.923Z,5.40
2023-08-04T09:04:10.211Z,5.70
2023-08-04T09:06:42.820Z,5.40
2023-08-04T09:09:15.319Z,5.40
2023-08-04T09:11:48.052Z,5.60
2023-08-04T09:14:20.934Z,5.60
2023-08-04T09:16:53.547Z,5.70
2023-08-04T09:19:26.089Z,5.10
2023-08-04T09:22:02.143Z,5.70
2023-08-04T09:24:35.017Z,5.50
2023-08-04T09:27:08.366Z,5.40
2023-08-04T09:29:40.954Z,5.60
2023-08-04T09:32:16.250Z,4.90
2023-08-04T09:34:49.560Z,5.00
2023-08-04T09:37:22.071Z,5.00
2023-08-04T09:39:54.551Z,5.30
2023-08-04T09:42:27.258Z,4.80
2023-08-04T09:45:00.018Z,5.30
2023-08-04T09:47:32.656Z,5.20
2023-08-04T09:50:06.049Z,5.30
2023-08-04T09:52:38.861Z,5.50
2023-08-04T09:55:12.317Z,5.30
2023-08-04T09:57:44.918Z,4.60
2023-08-04T10:00:18.911Z,5.30
2023-08-04T10:02:51.665Z,4.40
2023-08-04T10:05:24.502Z,5.30
2023-08-04T10:07:57.061Z,5.00
2023-08-04T10:10:29.345Z,5.20
2023-08-04T10:13:02.243Z,4.40
2023-08-04T10:15:34.738Z,4.80
2023-08-04T10:18:08.456Z,5.10
2023-08-04T10:20:40.769Z,5.80
2023-08-04T10:23:15.147Z,4.90
2023-08-04T10:25:57.812Z,4.80
2023-08-04T10:28:30.120Z,5.00
2023-08-04T10:31:14.949Z,4.80
2023-08-04T10:33:47.253Z,4.30
2023-08-04T10:36:20.724Z,4.40
2023-08-04T10:38:55.760Z,4.70
2023-08-04T10:41:27.938Z,4.50
2023-08-04T10:44:03.798Z,5.20
2023-08-04T10:46:37.478Z,4.60
2023-08-04T10:49:10.045Z,4.30
2023-08-04T10:51:42.263Z,5.00
2023-08-04T10:54:14.587Z,4.50
2023-08-04T10:56:49.364Z,4.60
2023-08-04T10:59:21.497Z,4.30
2023-08-04T11:01:53.663Z,4.00
2023-08-04T11:04:26.191Z,4.30
2023-08-04T11:07:01.203Z,4.70
2023-08-04T11:09:33.675Z,4.80
2023-08-04T11:12:06.599Z,4.50
2023-08-04T11:14:39.738Z,4.70
2023-08-04T11:17:16.952Z,5.10
2023-08-04T11:19:50.466Z,4.70
2023-08-04T11:22:24.410Z,4.60
2023-08-04T11:24:57.004Z,4.70
2023-08-04T11:27:29.289Z,4.40
2023-08-04T11:30:01.515Z,4.60
2023-08-04T11:32:33.828Z,4.90
2023-08-04T11:50:39.128Z,4.80
2023-08-04T11:53:15.471Z,4.60
2023-08-04T11:56:04.311Z,4.70
2023-08-04T11:58:46.502Z,4.70
2023-08-04T12:01:40.514Z,4.80
2023-08-04T12:04:27.931Z,4.70
2023-08-04T12:07:05.010Z,4.60
2023-08-04T12:09:37.745Z,4.70
2023-08-04T12:12:14.227Z,4.60
2023-08-04T12:15:01.646Z,4.90
2023-08-04T12:17:42.826Z,5.30
2023-08-04T12:22:47.579Z,5.30
2023-08-04T12:25:19.946Z,4.70
2023-08-04T12:27:52.321Z,5.50
2023-08-04T12:30:24.557Z,5.00
2023-08-04T12:32:56.799Z,4.80
2023-08-04T12:35:29.062Z,5.20
2023-08-04T12:38:05.283Z,5.00
2023-08-04T12:40:38.783Z,5.00
2023-08-04T12:43:11.013Z,5.50
2023-08-04T12:45:43.194Z,5.10
2023-08-04T12:48:15.328Z,4.80
2023-08-04T12:50:47.589Z,5.00
2023-08-04T12:53:20.021Z,5.10
2023-08-04T12:55:52.592Z,5.50
2023-08-04T12:58:25.051Z,5.30
2023-08-04T13:00:57.380Z,4.70
2023-08-04T13:03:29.569Z,5.20
2023-08-04T13:06:01.840Z,4.90
2023-08-04T13:08:34.103Z,4.90
2023-08-04T13:19:50.297Z,5.30
2023-08-04T13:22:22.514Z,4.80
2023-08-04T13:28:09.911Z,4.90
2023-08-04T13:30:46.383Z,4.80
2023-08-04T13:33:23.745Z,5.40
2023-08-04T13:35:56.245Z,4.90
2023-08-04T13:38:28.681Z,4.70
2023-08-04T13:41:01.007Z,4.90
2023-08-04T13:43:33.430Z,4.70
2023-08-04T13:46:05.762Z,4.80
2023-08-04T13:48:38.097Z,5.10
2023-08-04T13:51:24.999Z,5.10
2023-08-04T13:54:00.080Z,4.70
2023-08-04T13:56:32.480Z,5.00
2023-08-04T13:59:04.859Z,4.30
2023-08-04T14:01:37.771Z,4.70
2023-08-04T14:04:10.450Z,4.70
2023-08-04T14:06:42.926Z,4.30
2023-08-04T14:09:15.409Z,4.20
2023-08-04T14:11:48.196Z,4.40
2023-08-04T14:14:21.075Z,4.90
2023-08-04T14:16:53.409Z,4.50
2023-08-04T14:19:25.850Z,4.50
2023-08-04T14:21:58.342Z,4.30
2023-08-04T14:24:30.874Z,4.50
2023-08-04T14:27:04.111Z,4.70
2023-08-04T14:29:36.543Z,4.80
2023-08-04T14:32:09.635Z,4.90
2023-08-04T14:34:42.072Z,4.80
2023-08-04T14:37:14.603Z,4.70
2023-08-04T14:39:47.281Z,4.80
2023-08-04T14:42:20.207Z,4.80
2023-08-04T14:44:52.507Z,4.80
2023-08-04T14:47:25.024Z,5.10
2023-08-04T14:49:57.411Z,5.10
2023-08-04T14:52:29.680Z,4.60
2023-08-04T14:55:02.192Z,4.60
2023-08-04T14:57:34.417Z,5.00
2023-08-04T15:00:08.900Z,4.40
2023-08-04T15:02:41.725Z,4.40
2023-08-04T15:05:14.657Z,4.80
2023-08-04T15:07:47.173Z,4.90
2023-08-04T15:10:21.471Z,4.70
2023-08-04T15:12:53.889Z,4.40
2023-08-04T15:15:27.205Z,4.90
2023-08-04T15:17:59.846Z,5.00
2023-08-04T15:20:32.198Z,4.60
2023-08-04T15:23:04.737Z,4.60
2023-08-04T15:25:37.290Z,4.70
2023-08-04T15:28:09.836Z,5.30
2023-08-04T15:30:42.411Z,5.20
2023-08-04T15:33:16.675Z,5.00
2023-08-04T15:35:52.658Z,4.70
2023-08-04T15:38:24.865Z,5.20
2023-08-04T15:41:04.562Z,5.20
2023-08-04T15:43:38.596Z,4.90
2023-08-04T15:46:11.473Z,4.90
2023-08-04T15:48:43.752Z,4.80
2023-08-04T15:51:16.372Z,4.70
2023-08-04T15:53:50.293Z,5.00
2023-08-04T15:56:22.689Z,5.30
2023-08-04T15:58:55.147Z,4.90
2023-08-04T16:01:27.578Z,5.10
2023-08-04T16:03:59.914Z,5.50
2023-08-04T16:06:32.190Z,5.60
2023-08-04T16:09:05.408Z,5.20
2023-08-04T16:11:38.013Z,5.30
2023-08-04T16:14:10.649Z,5.00
2023-08-04T16:16:43.156Z,5.20
2023-08-04T16:19:16.854Z,4.90
2023-08-04T16:21:49.318Z,5.30
2023-08-04T16:24:21.644Z,5.10
2023-08-04T16:26:55.165Z,5.30
2023-08-04T16:29:27.463Z,5.20
2023-08-04T16:31:59.832Z,5.30
2023-08-04T16:34:32.251Z,5.30
2023-08-04T16:37:04.876Z,5.10
2023-08-04T16:39:38.204Z,4.70
2023-08-04T16:42:10.729Z,5.20
2023-08-04T16:44:42.941Z,5.00
2023-08-04T16:47:15.271Z,4.80
2023-08-04T16:49:48.299Z,4.60
2023-08-04T16:52:20.610Z,4.80
2023-08-04T16:54:53.330Z,4.90
2023-08-04T16:57:26.810Z,4.30
2023-08-04T16:59:59.646Z,4.20
2023-08-04T17:02:32.074Z,4.80
2023-08-04T17:05:05.347Z,4.40
2023-08-04T17:07:37.762Z,4.60
2023-08-04T17:10:11.422Z,4.50
2023-08-04T17:12:43.941Z,4.30
2023-08-04T17:15:29.927Z,4.40
2023-08-04T17:18:09.574Z,4.70
2023-08-04T17:20:42.031Z,4.60
2023-08-04T17:23:14.317Z,4.60
2023-08-04T17:25:46.659Z,4.60
2023-08-04T17:28:21.493Z,4.40
2023-08-04T17:31:01.560Z,4.80
2023-08-04T17:33:35.145Z,4.50
2023-08-04T17:36:12.623Z,4.20
2023-08-04T17:38:44.823Z,4.80
2023-08-04T17:41:19.142Z,4.50
2023-08-04T17:43:51.950Z,4.70
2023-08-04T17:46:24.528Z,4.30
2023-08-04T17:48:58.291Z,4.30
2023-08-04T17:51:30.572Z,4.40
2023-08-04T17:54:03.115Z,4.30
2023-08-04T17:56:37.449Z,4.80
2023-08-04T17:59:09.875Z,4.60
2023-08-04T18:01:43.443Z,4.30
2023-08-04T18:04:16.734Z,4.50
2023-08-04T18:06:49.266Z,4.20
2023-08-04T18:09:21.740Z,4.10
2023-08-04T18:11:54.079Z,4.10
2023-08-04T18:14:26.390Z,4.00
2023-08-04T18:16:58.475Z,4.20
2023-08-04T18:19:30.986Z,4.00
2023-08-04T18:22:04.451Z,4.40
2023-08-04T18:24:38.483Z,4.20
2023-08-04T18:27:14.060Z,4.30
2023-08-04T18:29:46.898Z,4.30
2023-08-04T18:32:21.067Z,4.50
2023-08-04T18:34:54.179Z,3.60
2023-08-04T18:37:26.473Z,4.10
2023-08-04T18:40:04.729Z,3.70
2023-08-04T18:42:39.439Z,4.10
2023-08-04T18:45:14.109Z,4.10
2023-08-04T18:47:46.932Z,3.90
2023-08-04T18:50:20.423Z,4.10
2023-08-04T18:52:53.803Z,4.10
2023-08-04T18:55:27.331Z,3.50
2023-08-04T18:57:59.950Z,4.00
2023-08-04T19:00:32.498Z,4.10
2023-08-04T19:03:05.029Z,4.00
2023-08-04T19:05:37.702Z,3.70
2023-08-04T19:08:13.234Z,4.20
2023-08-04T19:10:45.492Z,3.90
2023-08-04T19:13:17.814Z,4.20
2023-08-04T19:15:50.031Z,4.00
2023-08-04T19:18:22.446Z,4.00
2023-08-04T19:20:54.746Z,3.80
2023-08-04T19:23:28.606Z,4.10
2023-08-04T19:26:02.700Z,3.30
2023-08-04T19:28:36.546Z,3.70
2023-08-04T19:31:08.982Z,4.40
2023-08-04T19:33:46.339Z,3.80
2023-08-04T19:36:19.733Z,3.60
2023-08-04T19:38:54.358Z,3.70
2023-08-04T19:41:29.282Z,4.10
2023-08-04T19:49:34.441Z,3.50
2023-08-04T19:51:38.379Z,3.70
2023-08-04T19:54:18.801Z,3.90
2023-08-04T19:56:53.260Z,4.00
2023-08-04T19:59:27.933Z,3.90
2023-08-04T20:02:03.176Z,3.70
2023-08-04T20:04:39.289Z,3.50
2023-08-04T20:07:11.722Z,4.00
2023-08-04T20:09:48.596Z,3.60
2023-08-04T20:12:22.173Z,3.90
2023-08-04T20:14:56.296Z,3.90
2023-08-04T20:17:31.041Z,3.80
2023-08-04T20:20:14.484Z,3.50
2023-08-04T20:22:47.444Z,3.70
2023-08-04T20:25:22.990Z,4.50
2023-08-04T20:27:57.702Z,3.60
2023-08-04T20:30:33.862Z,3.80
2023-08-04T20:33:11.190Z,3.80
2023-08-04T20:35:46.017Z,3.80
2023-08-04T20:38:18.972Z,3.90
2023-08-04T20:41:01.786Z,3.90
2023-08-04T20:43:34.970Z,3.60
2023-08-04T20:46:13.502Z,3.50
2023-08-04T20:48:47.586Z,3.60
2023-08-04T20:51:20.317Z,3.70
2023-08-04T20:53:54.744Z,3.90
2023-08-04T20:56:37.155Z,3.90
2023-08-04T20:59:12.202Z,3.60
2023-08-04T21:01:47.699Z,3.90
2023-08-04T21:07:06.704Z,3.80
2023-08-04T21:11:32.171Z,3.80
2023-08-04T21:14:32.635Z,4.80
2023-08-04T21:17:05.008Z,3.80
2023-08-04T21:20:06.895Z,3.60
2023-08-04T21:22:58.209Z,4.00
2023-08-04T21:26:08.979Z,3.60
2023-08-04T21:28:59.466Z,4.00
2023-08-04T21:32:11.749Z,4.10
2023-08-04T21:34:42.211Z,4.00
2023-08-04T21:37:16.944Z,4.20
2023-08-04T21:39:53.664Z,3.90
2023-08-04T21:42:34.211Z,3.70
2023-08-04T21:45:23.913Z,3.80
2023-08-04T21:48:01.487Z,3.80
2023-08-04T21:50:41.912Z,3.50
2023-08-04T21:53:15.132Z,3.30
2023-08-04T21:55:57.100Z,3.70
2023-08-04T21:58:31.846Z,3.50
2023-08-04T22:01:10.597Z,3.10
2023-08-04T22:03:43.553Z,3.00
2023-08-04T22:06:17.459Z,3.40
2023-08-04T22:11:58.606Z,3.30
2023-08-04T22:14:39.571Z,3.00
2023-08-04T22:18:19.187Z,3.20
2023-08-04T22:21:27.267Z,3.10
2023-08-04T22:24:17.116Z,3.00
2023-08-04T22:27:21.035Z,2.90
2023-08-04T22:30:36.989Z,2.60
2023-08-04T22:36:08.110Z,2.50
2023-08-04T22:36:56.697Z,2.80
2023-08-04T22:39:56.580Z,2.40
2023-08-04T22:43:13.485Z,3.10
2023-08-04T22:46:52.110Z,2.80
2023-08-04T22:49:27.552Z,2.70
2023-08-04T22:52:02.982Z,3.30
2023-08-04T22:54:36.144Z,2.80
2023-08-04T22:57:10.477Z,3.30
2023-08-04T22:59:43.207Z,3.50
2023-08-04T23:02:16.570Z,3.10
2023-08-04T23:04:49.615Z,3.00
2023-08-04T23:07:27.695Z,2.70
2023-08-04T23:10:01.312Z,3.20
2023-08-04T23:12:36.574Z,2.90
2023-08-04T23:15:12.452Z,2.70
2023-08-04T23:17:53.676Z,2.70
2023-08-04T23:20:30.155Z,2.60
2023-08-04T23:23:04.521Z,2.70
2023-08-04T23:25:39.724Z,2.70
2023-08-04T23:28:17.066Z,2.60
2023-08-04T23:42:03.302Z,2.40
2023-08-04T23:44:35.930Z,2.30
2023-08-04T23:47:09.487Z,2.80
2023-08-04T23:49:42.613Z,2.70
2023-08-04T23:52:15.177Z,2.70
2023-08-04T23:54:48.203Z,2.70
2023-08-04T23:57:21.210Z,2.60
2023-08-04T23:59:54.936Z,2.60
